Harvey, North Dakota
Current Conditions -  °F | °C
As of 6:15 PM on Wednesday 28 Jan 2015 (Local Time) from K5H4 Reporting Station
Overcast Overcast  
Wind Chill: 11°   Ceiling: 600
Heat Index: 25°   Visibility: 10mi
Dew Point: 25°   Wind: 20mph
Humidity: 100%   Direction: 330°NNW
Pressure: 30.02"   Gusts: 30mph
Location:  47.77°N, 99.94°W
Report Text: K5H4 290015Z AUTO 33017G26KT 10SM OVC006 M04/M04 A3002 RMK AO2
Loading
Personal Weather Stations






























Interactive Weather Map New forecast layout! Learn more

10-Day Weather Forecast

Advertisements
Track Severe Weather on mobile